createdAt,value
2023-05-21T00:01:08.587Z,8.68
2023-05-21T00:03:36.529Z,9.85
2023-05-21T00:06:04.267Z,10.45
2023-05-21T00:08:31.637Z,12.43
2023-05-21T00:10:58.932Z,13.07
2023-05-21T00:13:26.283Z,11.73
2023-05-21T00:15:56.041Z,11.50
2023-05-21T00:18:25.363Z,12.23
2023-05-21T00:20:53.161Z,13.05
2023-05-21T00:23:21.476Z,13.38
2023-05-21T00:25:50.537Z,12.13
2023-05-21T00:28:18.143Z,13.30
2023-05-21T00:30:45.924Z,12.85
2023-05-21T00:33:15.906Z,13.55
2023-05-21T00:35:43.345Z,12.57
2023-05-21T00:38:10.696Z,12.10
2023-05-21T00:40:41.168Z,12.57
2023-05-21T00:43:10.836Z,14.82
2023-05-21T00:45:38.561Z,12.98
2023-05-21T00:48:06.647Z,13.00
2023-05-21T00:50:34.247Z,13.57
2023-05-21T00:53:04.975Z,14.00
2023-05-21T00:55:32.313Z,12.23
2023-05-21T00:57:59.665Z,13.30
2023-05-21T01:00:28.214Z,15.07
2023-05-21T01:02:55.734Z,14.30
2023-05-21T01:05:23.197Z,13.40
2023-05-21T01:07:52.741Z,14.25
2023-05-21T01:10:20.071Z,13.63
2023-05-21T01:12:50.174Z,13.90
2023-05-21T01:15:17.506Z,13.82
2023-05-21T01:17:48.811Z,11.90
2023-05-21T01:20:20.100Z,11.85
2023-05-21T01:22:57.123Z,12.68
2023-05-21T01:25:27.527Z,13.85
2023-05-21T01:27:54.942Z,16.05
2023-05-21T01:30:24.648Z,13.55
2023-05-21T01:33:04.255Z,13.75
2023-05-21T01:35:38.975Z,16.92
2023-05-21T01:38:22.814Z,14.52
2023-05-21T01:41:03.780Z,15.40
2023-05-21T01:43:39.710Z,13.63
2023-05-21T01:46:13.354Z,14.45
2023-05-21T01:48:41.958Z,13.88
2023-05-21T01:51:09.557Z,15.02
2023-05-21T01:53:40.764Z,15.68
2023-05-21T01:56:08.330Z,15.23
2023-05-21T01:58:35.635Z,14.57
2023-05-21T02:01:05.626Z,15.13
2023-05-21T02:03:35.809Z,15.20
2023-05-21T02:06:03.299Z,15.85
2023-05-21T02:08:31.337Z,15.90
2023-05-21T02:10:58.998Z,15.02
2023-05-21T02:13:29.182Z,15.23
2023-05-21T02:15:56.531Z,15.05
2023-05-21T02:18:23.899Z,15.60
2023-05-21T02:20:51.171Z,14.55
2023-05-21T02:23:18.500Z,16.10
2023-05-21T02:25:45.875Z,17.55
2023-05-21T02:28:13.244Z,14.48
2023-05-21T02:30:43.058Z,15.55
2023-05-21T02:33:14.191Z,17.95
2023-05-21T02:35:41.838Z,16.08
2023-05-21T02:38:13.642Z,16.73
2023-05-21T02:40:41.088Z,16.73
2023-05-21T02:43:08.361Z,16.02
2023-05-21T02:45:36.101Z,17.20
2023-05-21T02:48:03.780Z,16.73
2023-05-21T02:50:33.626Z,17.08
2023-05-21T02:53:06.340Z,17.27
2023-05-21T02:55:36.457Z,17.23
2023-05-21T02:58:03.985Z,17.88
2023-05-21T03:00:31.501Z,15.75
2023-05-21T03:02:58.880Z,16.70
2023-05-21T03:05:26.223Z,16.15
2023-05-21T03:07:53.597Z,16.88
2023-05-21T03:10:25.425Z,16.58
2023-05-21T03:12:54.866Z,17.65
2023-05-21T03:15:24.228Z,17.20
2023-05-21T03:17:54.273Z,17.13
2023-05-21T03:20:21.740Z,16.50
2023-05-21T03:22:51.252Z,16.30
2023-05-21T03:25:18.600Z,18.17
2023-05-21T03:27:45.989Z,18.83
2023-05-21T03:30:15.948Z,18.00
2023-05-21T03:32:45.643Z,18.75
2023-05-21T03:35:13.015Z,18.30
2023-05-21T03:37:40.328Z,16.60
2023-05-21T03:40:08.299Z,18.60
2023-05-21T03:42:35.585Z,18.38
2023-05-21T03:45:06.548Z,18.05
2023-05-21T03:47:36.407Z,17.83
2023-05-21T03:50:05.622Z,17.77
2023-05-21T03:52:32.909Z,18.33
2023-05-21T03:55:00.213Z,16.45
2023-05-21T03:57:28.069Z,17.85
2023-05-21T03:59:55.966Z,17.88
2023-05-21T04:02:25.440Z,18.38
2023-05-21T04:04:53.723Z,17.48
2023-05-21T04:07:23.889Z,17.90
2023-05-21T04:09:53.628Z,18.00
2023-05-21T04:12:20.935Z,18.83
2023-05-21T04:14:48.710Z,18.55
2023-05-21T04:17:16.060Z,18.83
2023-05-21T04:19:43.444Z,18.30
2023-05-21T04:22:12.248Z,18.92
2023-05-21T04:24:39.617Z,17.40
2023-05-21T04:27:06.945Z,18.63
2023-05-21T04:29:34.256Z,19.73
2023-05-21T04:32:01.554Z,18.75
2023-05-21T04:34:29.757Z,17.63
2023-05-21T04:36:59.534Z,17.25
2023-05-21T04:39:26.882Z,17.63
2023-05-21T04:41:56.882Z,18.08
2023-05-21T04:44:24.778Z,17.90
2023-05-21T04:46:52.767Z,16.42
2023-05-21T04:49:21.465Z,19.27
2023-05-21T04:51:49.475Z,18.08
2023-05-21T04:54:16.906Z,19.13
2023-05-21T04:56:44.479Z,18.25
2023-05-21T04:59:11.866Z,18.65
2023-05-21T05:01:39.255Z,17.65
2023-05-21T05:04:06.858Z,17.65
2023-05-21T05:06:34.153Z,16.80
2023-05-21T05:09:04.685Z,17.42
2023-05-21T05:11:32.057Z,18.97
2023-05-21T05:13:59.325Z,17.67
2023-05-21T05:16:26.762Z,17.67
2023-05-21T05:18:54.208Z,17.92
2023-05-21T05:21:23.933Z,18.58
2023-05-21T05:23:53.798Z,17.75
2023-05-21T05:26:23.505Z,17.05
2023-05-21T05:28:50.847Z,17.58
2023-05-21T05:31:18.155Z,16.27
2023-05-21T05:33:45.553Z,17.23
2023-05-21T05:36:12.859Z,17.05
2023-05-21T05:38:42.560Z,18.20
2023-05-21T05:41:09.886Z,16.58
2023-05-21T05:43:37.313Z,16.55
2023-05-21T05:46:06.740Z,16.75
2023-05-21T05:48:36.253Z,19.60
2023-05-21T05:51:03.690Z,17.45
2023-05-21T05:53:32.361Z,16.10
2023-05-21T05:56:02.554Z,15.30
2023-05-21T05:58:33.266Z,17.48
2023-05-21T06:01:04.211Z,18.30
2023-05-21T06:03:34.075Z,17.35
2023-05-21T06:06:01.545Z,17.33
2023-05-21T06:08:29.199Z,16.73
2023-05-21T06:10:58.618Z,15.10
2023-05-21T06:13:25.988Z,15.63
2023-05-21T06:15:53.579Z,15.88
2023-05-21T06:18:21.019Z,15.82
2023-05-21T06:20:48.355Z,17.02
2023-05-21T06:23:15.718Z,15.60
2023-05-21T06:25:42.999Z,14.75
2023-05-21T06:28:10.312Z,15.70
2023-05-21T06:30:37.651Z,14.15
2023-05-21T06:33:07.650Z,14.20
2023-05-21T06:35:37.177Z,15.07
2023-05-21T06:38:04.783Z,14.10
2023-05-21T06:40:32.057Z,15.25
2023-05-21T06:42:59.950Z,15.50
2023-05-21T06:45:27.343Z,14.63
2023-05-21T06:47:54.709Z,14.23
2023-05-21T06:50:24.276Z,15.27
2023-05-21T06:52:53.798Z,14.55
2023-05-21T06:55:21.339Z,16.20
2023-05-21T06:57:48.647Z,14.02
2023-05-21T07:00:16.072Z,13.98
2023-05-21T07:02:43.396Z,13.98
2023-05-21T07:05:10.802Z,13.90
2023-05-21T07:07:38.081Z,13.30
2023-05-21T07:10:06.062Z,14.30
2023-05-21T07:12:33.334Z,13.50
2023-05-21T07:15:00.708Z,12.95
2023-05-21T07:17:28.071Z,13.05
2023-05-21T07:19:56.074Z,13.27
2023-05-21T07:22:23.980Z,13.50
2023-05-21T07:24:51.934Z,12.57
2023-05-21T07:29:51.977Z,12.27
2023-05-21T07:32:19.306Z,12.35
2023-05-21T07:34:47.184Z,12.80
2023-05-21T07:37:14.487Z,14.30
2023-05-21T07:39:44.199Z,12.05
2023-05-21T07:42:11.500Z,12.32
2023-05-21T07:44:38.779Z,11.23
2023-05-21T07:47:08.273Z,11.00
2023-05-21T07:49:40.546Z,12.27
2023-05-21T07:52:10.067Z,12.10
2023-05-21T07:54:37.380Z,11.30
2023-05-21T07:57:04.969Z,11.13
2023-05-21T07:59:33.602Z,10.35
2023-05-21T08:02:03.251Z,11.65
2023-05-21T08:04:30.781Z,9.98
2023-05-21T08:06:58.200Z,11.00
2023-05-21T08:09:26.142Z,10.55
2023-05-21T08:11:53.491Z,9.65
2023-05-21T08:14:20.777Z,9.43
2023-05-21T08:16:52.831Z,9.82
2023-05-21T08:19:20.362Z,10.52
2023-05-21T08:21:52.714Z,11.95
2023-05-21T08:24:26.422Z,11.32
2023-05-21T08:26:53.784Z,10.43
2023-05-21T08:29:23.511Z,10.15
2023-05-21T08:31:53.686Z,10.60
2023-05-21T08:34:21.087Z,9.77
2023-05-21T08:36:49.978Z,10.13
2023-05-21T08:39:19.842Z,11.88
2023-05-21T08:41:51.931Z,9.23
2023-05-21T08:44:24.115Z,10.63
2023-05-21T08:46:54.458Z,10.77
2023-05-21T08:49:27.881Z,9.57
2023-05-21T08:51:57.825Z,9.38
2023-05-21T08:54:25.324Z,9.63
2023-05-21T08:56:56.416Z,11.07
2023-05-21T08:59:24.114Z,8.93
2023-05-21T09:01:54.005Z,9.98
2023-05-21T09:04:23.985Z,9.65
2023-05-21T09:06:52.031Z,9.68
2023-05-21T09:09:41.918Z,9.18
2023-05-21T09:12:09.234Z,8.73
2023-05-21T09:14:38.083Z,9.20
2023-05-21T09:17:05.525Z,9.90
2023-05-21T09:19:33.033Z,9.05
2023-05-21T09:22:04.126Z,9.20
2023-05-21T09:24:35.091Z,8.30
2023-05-21T09:27:06.434Z,8.57
2023-05-21T09:29:34.603Z,10.05
2023-05-21T09:32:07.146Z,8.50
2023-05-21T09:34:36.726Z,10.98
2023-05-21T09:37:06.509Z,9.48
2023-05-21T09:39:36.020Z,9.98
2023-05-21T09:42:03.408Z,8.35
2023-05-21T09:44:30.755Z,9.35
2023-05-21T09:46:59.640Z,8.35
2023-05-21T09:49:28.094Z,8.10
2023-05-21T09:51:59.714Z,8.25
2023-05-21T09:54:33.349Z,8.63
2023-05-21T09:57:04.100Z,7.70
2023-05-21T09:59:40.452Z,8.65
2023-05-21T10:02:21.854Z,9.18
2023-05-21T10:04:51.713Z,7.93
2023-05-21T10:07:27.200Z,6.97
2023-05-21T10:09:58.501Z,7.53
2023-05-21T10:15:03.452Z,7.93
2023-05-21T10:17:31.494Z,7.38
2023-05-21T10:20:00.602Z,7.25
2023-05-21T10:22:28.512Z,7.28
2023-05-21T10:24:56.613Z,9.07
2023-05-21T10:27:26.852Z,7.30
2023-05-21T10:29:57.192Z,8.65
2023-05-21T10:32:26.077Z,7.15
2023-05-21T10:34:59.314Z,7.28
2023-05-21T10:37:28.811Z,6.93
2023-05-21T10:39:56.526Z,8.25
2023-05-21T10:42:46.794Z,7.10
2023-05-21T10:45:27.046Z,7.50
2023-05-21T10:48:09.818Z,7.03
2023-05-21T10:50:48.779Z,6.97
2023-05-21T10:53:47.832Z,7.25
2023-05-21T10:56:38.916Z,7.82
2023-05-21T10:59:23.973Z,7.03
2023-05-21T11:01:54.106Z,7.63
2023-05-21T11:04:30.239Z,7.35
2023-05-21T11:06:59.271Z,6.97
2023-05-21T11:09:27.536Z,6.22
2023-05-21T11:12:00.159Z,7.05
2023-05-21T11:14:50.951Z,9.80
2023-05-21T11:17:39.022Z,7.22
2023-05-21T11:20:12.162Z,7.00
2023-05-21T11:22:39.616Z,7.07
2023-05-21T11:25:07.258Z,7.32
2023-05-21T11:27:36.780Z,6.70
2023-05-21T11:30:23.177Z,6.28
2023-05-21T11:33:10.913Z,6.97
2023-05-21T11:35:50.223Z,6.47
2023-05-21T11:38:18.502Z,6.22
2023-05-21T11:40:55.627Z,7.95
2023-05-21T11:43:23.102Z,6.57
2023-05-21T11:45:52.751Z,7.88
2023-05-21T11:48:26.722Z,6.55
2023-05-21T11:50:55.128Z,6.35
2023-05-21T11:53:24.845Z,7.18
2023-05-21T11:55:57.471Z,8.10
2023-05-21T11:58:25.140Z,6.75
2023-05-21T12:00:54.872Z,6.13
2023-05-21T12:03:26.892Z,6.65
2023-05-21T12:05:58.094Z,6.50
2023-05-21T12:08:25.737Z,7.88
2023-05-21T12:10:59.194Z,7.13
2023-05-21T12:13:32.195Z,6.57
2023-05-21T12:15:59.960Z,7.95
2023-05-21T12:18:29.631Z,6.15
2023-05-21T12:20:59.078Z,7.00
2023-05-21T12:23:26.449Z,6.78
2023-05-21T12:25:56.303Z,8.43
2023-05-21T12:28:24.876Z,6.60
2023-05-21T12:30:53.589Z,8.63
2023-05-21T12:33:26.063Z,8.77
2023-05-21T12:35:53.519Z,6.60
2023-05-21T12:38:20.896Z,7.32
2023-05-21T12:40:48.219Z,6.80
2023-05-21T12:43:15.620Z,9.05
2023-05-21T12:45:43.763Z,5.75
2023-05-21T12:48:13.838Z,7.90
2023-05-21T12:50:43.498Z,10.35
2023-05-21T12:53:13.369Z,5.90
2023-05-21T12:55:40.864Z,7.95
2023-05-21T12:58:09.356Z,6.43
2023-05-21T13:00:41.686Z,5.88
2023-05-21T13:03:09.250Z,6.10
2023-05-21T13:05:43.798Z,6.80
2023-05-21T13:08:11.425Z,7.20
2023-05-21T13:10:40.988Z,6.82
2023-05-21T13:13:10.745Z,5.65
2023-05-21T13:15:38.087Z,5.97
2023-05-21T13:18:05.423Z,5.88
2023-05-21T13:20:35.459Z,6.03
2023-05-21T13:23:07.201Z,5.95
2023-05-21T13:25:35.671Z,5.53
2023-05-21T13:28:08.743Z,5.00
2023-05-21T13:30:39.508Z,5.20
2023-05-21T13:33:07.321Z,8.20
2023-05-21T13:35:34.790Z,6.05
2023-05-21T13:38:02.121Z,5.30
2023-05-21T13:40:29.382Z,5.18
2023-05-21T13:42:56.845Z,4.93
2023-05-21T13:45:28.994Z,5.60
2023-05-21T13:47:59.133Z,5.63
2023-05-21T13:50:26.575Z,5.63
2023-05-21T13:52:56.801Z,5.75
2023-05-21T13:55:24.105Z,6.15
2023-05-21T13:57:51.450Z,5.47
2023-05-21T14:00:18.837Z,5.90
2023-05-21T14:02:46.227Z,6.95
2023-05-21T14:05:14.110Z,5.93
2023-05-21T14:07:44.090Z,6.57
2023-05-21T14:10:11.824Z,6.00
2023-05-21T14:12:42.070Z,5.70
2023-05-21T14:15:10.025Z,7.00
2023-05-21T14:17:40.273Z,6.13
2023-05-21T14:20:08.381Z,7.03
2023-05-21T14:22:41.389Z,7.60
2023-05-21T14:25:09.111Z,5.60
2023-05-21T14:27:37.986Z,5.65
2023-05-21T14:30:05.952Z,5.80
2023-05-21T14:32:33.258Z,5.18
2023-05-21T14:35:03.105Z,6.55
2023-05-21T14:37:35.174Z,6.78
2023-05-21T14:40:05.377Z,5.30
2023-05-21T14:42:32.653Z,6.27
2023-05-21T14:45:16.949Z,6.45
2023-05-21T14:47:45.322Z,8.07
2023-05-21T14:50:12.674Z,7.35
2023-05-21T14:52:42.594Z,6.40
2023-05-21T14:55:12.820Z,6.25
2023-05-21T14:57:40.099Z,5.30
2023-05-21T15:00:10.303Z,5.30
2023-05-21T15:02:38.382Z,6.00
2023-05-21T15:05:06.343Z,5.40
2023-05-21T15:07:33.625Z,6.05
2023-05-21T15:10:00.904Z,8.00
2023-05-21T15:12:28.423Z,6.40
2023-05-21T15:14:55.792Z,7.28
2023-05-21T15:17:23.142Z,7.43
2023-05-21T15:19:50.471Z,8.40
2023-05-21T15:22:17.786Z,6.03
2023-05-21T15:24:45.092Z,5.57
2023-05-21T15:27:14.904Z,6.03
2023-05-21T15:29:42.280Z,5.60
2023-05-21T15:32:09.579Z,6.72
2023-05-21T15:34:39.394Z,6.53
2023-05-21T15:37:09.190Z,6.85
2023-05-21T15:39:36.427Z,5.75
2023-05-21T15:42:03.812Z,5.90
2023-05-21T15:44:33.361Z,7.88
2023-05-21T15:47:00.860Z,6.25
2023-05-21T15:49:32.965Z,7.07
2023-05-21T15:52:03.142Z,6.68
2023-05-21T15:54:33.547Z,7.50
2023-05-21T15:57:00.883Z,6.88
2023-05-21T15:59:28.256Z,5.70
2023-05-21T16:01:56.345Z,6.30
2023-05-21T16:04:25.803Z,8.00
2023-05-21T16:06:53.148Z,7.25
2023-05-21T16:09:20.455Z,6.07
2023-05-21T16:11:50.182Z,5.72
2023-05-21T16:14:19.594Z,6.47
2023-05-21T16:16:49.188Z,5.57
2023-05-21T16:19:21.366Z,5.75
2023-05-21T16:21:48.756Z,6.75
2023-05-21T16:24:16.206Z,9.05
2023-05-21T16:26:44.278Z,7.68
2023-05-21T16:29:13.976Z,6.32
2023-05-21T16:31:41.354Z,6.30
2023-05-21T16:34:10.832Z,6.38
2023-05-21T16:36:38.401Z,7.05
2023-05-21T16:39:05.734Z,6.22
2023-05-21T16:41:33.984Z,6.20
2023-05-21T16:44:01.272Z,6.88
2023-05-21T16:46:31.227Z,6.25
2023-05-21T16:49:01.362Z,6.55
2023-05-21T16:51:28.654Z,6.18
2023-05-21T16:54:00.711Z,6.53
2023-05-21T16:56:28.059Z,8.80
2023-05-21T16:58:55.415Z,6.50
2023-05-21T17:01:23.039Z,6.95
2023-05-21T17:03:50.551Z,6.25
2023-05-21T17:06:17.990Z,5.95
2023-05-21T17:08:45.491Z,7.65
2023-05-21T17:11:15.977Z,7.10
2023-05-21T17:13:48.989Z,7.55
2023-05-21T17:16:18.516Z,6.05
2023-05-21T17:18:45.906Z,6.10
2023-05-21T17:21:13.684Z,6.75
2023-05-21T17:23:42.848Z,5.97
2023-05-21T17:26:13.336Z,5.70
2023-05-21T17:28:40.630Z,6.10
2023-05-21T17:31:10.303Z,5.97
2023-05-21T17:33:37.901Z,5.80
2023-05-21T17:36:05.400Z,6.32
2023-05-21T17:38:32.703Z,6.05
2023-05-21T17:41:02.783Z,9.10
2023-05-21T17:43:31.924Z,6.32
2023-05-21T17:45:59.515Z,6.03
2023-05-21T17:48:26.772Z,7.00
2023-05-21T17:50:54.376Z,6.72
2023-05-21T17:53:22.770Z,6.45
2023-05-21T17:55:50.226Z,6.50
2023-05-21T17:58:19.706Z,7.53
2023-05-21T18:00:49.389Z,5.88
2023-05-21T18:03:16.736Z,5.88
2023-05-21T18:05:44.068Z,6.95
2023-05-21T18:08:11.577Z,6.22
2023-05-21T18:10:41.013Z,6.20
2023-05-21T18:13:08.309Z,6.80
2023-05-21T18:15:36.000Z,7.15
2023-05-21T18:18:03.896Z,6.07
2023-05-21T18:20:35.904Z,5.15
2023-05-21T18:23:05.878Z,6.07
2023-05-21T18:25:33.173Z,6.47
2023-05-21T18:28:02.851Z,7.38
2023-05-21T18:30:30.125Z,7.85
2023-05-21T18:32:57.415Z,6.43
2023-05-21T18:35:24.819Z,6.05
2023-05-21T18:37:52.109Z,5.97
2023-05-21T18:40:22.963Z,6.13
2023-05-21T18:42:50.385Z,5.50
2023-05-21T18:45:22.180Z,6.13
2023-05-21T18:47:49.482Z,6.22
2023-05-21T18:50:19.059Z,6.32
2023-05-21T18:52:53.387Z,9.30
2023-05-21T18:55:23.423Z,9.02
2023-05-21T18:57:53.035Z,8.15
2023-05-21T19:00:22.936Z,6.28
2023-05-21T19:02:50.287Z,6.55
2023-05-21T19:05:17.752Z,6.05
2023-05-21T19:07:45.092Z,6.40
2023-05-21T19:10:12.713Z,6.90
2023-05-21T19:12:41.884Z,6.35
2023-05-21T19:15:10.028Z,7.10
2023-05-21T19:17:39.129Z,7.55
2023-05-21T19:20:10.684Z,6.25
2023-05-21T19:22:38.033Z,5.53
2023-05-21T19:25:08.176Z,6.28
2023-05-21T19:27:35.477Z,6.75
2023-05-21T19:30:02.818Z,6.53
2023-05-21T19:32:30.928Z,6.38
2023-05-21T19:35:00.722Z,6.72
2023-05-21T19:37:28.114Z,7.50
2023-05-21T19:39:58.410Z,6.28
2023-05-21T19:42:25.841Z,6.57
2023-05-21T19:44:53.109Z,6.15
2023-05-21T19:47:20.511Z,7.63
2023-05-21T19:49:52.412Z,6.15
2023-05-21T19:52:24.572Z,7.05
2023-05-21T19:54:54.383Z,7.47
2023-05-21T19:57:21.670Z,6.63
2023-05-21T19:59:48.994Z,6.82
2023-05-21T20:02:17.118Z,6.38
2023-05-21T20:04:44.410Z,6.30
2023-05-21T20:07:14.196Z,6.95
2023-05-21T20:09:41.770Z,6.97
2023-05-21T20:12:09.482Z,6.63
2023-05-21T20:14:39.297Z,8.48
2023-05-21T20:17:07.203Z,6.90
2023-05-21T20:19:35.839Z,6.47
2023-05-21T20:22:05.951Z,5.85
2023-05-21T20:24:35.865Z,8.32
2023-05-21T20:27:05.553Z,7.05
2023-05-21T20:29:32.999Z,6.65
2023-05-21T20:32:02.785Z,6.55
2023-05-21T20:34:30.166Z,7.22
2023-05-21T20:36:58.305Z,6.25
2023-05-21T20:39:29.588Z,6.95
2023-05-21T20:44:27.468Z,6.85
2023-05-21T20:46:57.183Z,8.15
2023-05-21T20:49:25.048Z,9.00
2023-05-21T20:51:56.954Z,7.05
2023-05-21T20:54:27.019Z,7.57
2023-05-21T20:56:58.978Z,7.38
2023-05-21T20:59:27.387Z,7.03
2023-05-21T21:01:57.286Z,7.57
2023-05-21T21:04:26.903Z,6.50
2023-05-21T21:06:55.309Z,7.05
2023-05-21T21:09:30.074Z,6.97
2023-05-21T21:11:57.463Z,7.15
2023-05-21T21:14:24.832Z,6.68
2023-05-21T21:16:52.106Z,7.63
2023-05-21T21:19:19.567Z,8.07
2023-05-21T21:21:47.798Z,7.47
2023-05-21T21:24:15.089Z,6.93
2023-05-21T21:26:42.377Z,7.55
2023-05-21T21:29:09.645Z,6.45
2023-05-21T21:31:36.995Z,8.50
2023-05-21T21:34:04.330Z,8.68
2023-05-21T21:36:31.741Z,9.40
2023-05-21T21:39:02.593Z,11.38
2023-05-21T21:41:30.020Z,7.18
2023-05-21T21:44:01.749Z,7.60
2023-05-21T21:46:31.438Z,9.98
2023-05-21T21:48:58.768Z,9.75
2023-05-21T21:51:28.559Z,8.88
2023-05-21T21:54:00.212Z,8.55
2023-05-21T21:56:27.466Z,8.23
2023-05-21T21:58:57.310Z,8.07
2023-05-21T22:01:24.912Z,7.78
2023-05-21T22:03:54.443Z,6.50
2023-05-21T22:06:21.900Z,8.73
2023-05-21T22:08:51.461Z,6.90
2023-05-21T22:11:18.831Z,6.97
2023-05-21T22:13:46.153Z,8.23
2023-05-21T22:16:15.637Z,6.88
2023-05-21T22:18:46.158Z,6.90
2023-05-21T22:21:14.489Z,6.73
2023-05-21T22:23:41.923Z,7.03
2023-05-21T22:26:09.841Z,9.02
2023-05-21T22:28:39.630Z,9.20
2023-05-21T22:31:10.649Z,7.93
2023-05-21T22:33:40.480Z,10.50
2023-05-21T22:36:11.089Z,7.60
2023-05-21T22:38:38.423Z,9.07
2023-05-21T22:41:05.894Z,8.23
2023-05-21T22:43:34.678Z,7.88
2023-05-21T22:46:02.089Z,7.72
2023-05-21T22:48:31.736Z,8.05
2023-05-21T22:51:01.816Z,9.10
2023-05-21T22:53:29.300Z,8.90
2023-05-21T22:55:56.586Z,8.52
2023-05-21T22:58:23.884Z,7.60
2023-05-21T23:00:51.222Z,8.25
2023-05-21T23:03:18.512Z,9.20
2023-05-21T23:05:46.162Z,8.85
2023-05-21T23:08:13.864Z,11.55
2023-05-21T23:10:45.504Z,8.32
2023-05-21T23:13:15.009Z,10.98
2023-05-21T23:15:48.433Z,8.05
2023-05-21T23:18:16.598Z,8.60
2023-05-21T23:20:46.363Z,8.27
2023-05-21T23:23:13.651Z,9.60
2023-05-21T23:25:40.976Z,9.18
2023-05-21T23:28:08.423Z,8.27
2023-05-21T23:30:38.346Z,11.45
2023-05-21T23:33:05.844Z,8.93
2023-05-21T23:35:35.776Z,8.38
2023-05-21T23:38:03.631Z,8.75
2023-05-21T23:40:33.103Z,7.65
2023-05-21T23:43:00.570Z,10.25
2023-05-21T23:45:27.889Z,8.90
2023-05-21T23:47:57.596Z,8.60
2023-05-21T23:50:25.127Z,9.25
2023-05-21T23:52:52.431Z,8.30
2023-05-21T23:55:21.989Z,9.40
2023-05-21T23:57:49.375Z,8.77
